Time;durP1;ratioP1;P1;durP2;ratioP2;P2;SDS_P1;SDS_P2;PMS_P1;PMS_P2;Temp;Humidity;BMP_temperature;BMP_pressure;BME280_temperature;BME280_humidity;BME280_pressure;Samples;Min_cycle;Max_cycle;Signal;HPM_P1;HPM_P2
2023/05/05 00:01:22;;;;;;;1.93;1.47;;;9.60;87.10;9.30;100916.00;;;;4924789;28;108812;-69
2023/05/05 00:03:48;;;;;;;5.00;2.33;;;9.50;87.90;9.30;100922.00;;;;4923724;28;98360;-69
2023/05/05 00:06:14;;;;;;;3.00;2.00;;;9.40;88.60;9.20;100914.00;;;;4923427;28;110370;-68
2023/05/05 00:08:40;;;;;;;3.10;1.33;;;9.30;89.40;9.10;100906.00;;;;4924424;28;109900;-69
2023/05/05 00:11:05;;;;;;;2.50;1.90;;;9.20;90.10;9.00;100915.00;;;;4923783;28;92877;-69
2023/05/05 00:13:31;;;;;;;1.60;1.50;;;9.10;90.50;8.90;100916.00;;;;4925071;28;123290;-68
2023/05/05 00:15:57;;;;;;;2.03;1.90;;;9.10;91.00;8.90;100914.00;;;;4924268;28;122600;-69
2023/05/05 00:18:22;;;;;;;2.07;1.87;;;9.00;91.30;8.80;100911.00;;;;4921658;28;92735;-69
2023/05/05 00:20:48;;;;;;;4.27;2.47;;;8.90;91.70;8.70;100916.00;;;;4921424;28;108890;-69
2023/05/05 00:23:15;;;;;;;4.13;1.97;;;8.90;92.10;8.70;100925.00;;;;4920607;28;120282;-69
2023/05/05 00:25:41;;;;;;;3.80;2.07;;;8.90;92.50;8.60;100921.00;;;;4923695;28;93434;-69
2023/05/05 00:28:07;;;;;;;2.03;1.73;;;8.80;92.80;8.60;100914.00;;;;4929409;28;92886;-69
2023/05/05 00:30:33;;;;;;;1.53;1.43;;;8.70;93.10;8.50;100914.00;;;;4921438;28;92946;-69
2023/05/05 00:33:00;;;;;;;4.47;2.20;;;8.60;93.50;8.40;100900.00;;;;4923732;28;92350;-69
2023/05/05 00:35:26;;;;;;;1.60;1.50;;;8.60;93.90;8.40;100912.00;;;;4922400;28;93399;-69
2023/05/05 00:37:52;;;;;;;2.43;2.23;;;8.50;94.30;8.40;100895.00;;;;4927396;28;108747;-69
2023/05/05 00:40:17;;;;;;;3.70;2.63;;;8.50;94.90;8.30;100900.00;;;;4928480;28;93826;-69
2023/05/05 00:42:46;;;;;;;2.97;2.43;;;8.40;95.70;8.30;100895.00;;;;4927134;28;93772;-69
2023/05/05 00:45:14;;;;;;;5.93;2.33;;;8.40;96.20;8.30;100889.00;;;;4925269;28;93843;-69
2023/05/05 00:47:50;;;;;;;1.60;1.50;;;8.40;96.50;8.30;100898.00;;;;4927818;28;93243;-69
2023/05/05 00:50:32;;;;;;;1.57;1.47;;;8.40;96.90;8.20;100895.00;;;;4925574;28;92889;-69
2023/05/05 00:53:04;;;;;;;6.03;2.60;;;8.30;97.10;8.20;100890.00;;;;4921387;28;122458;-69
2023/05/05 00:55:31;;;;;;;1.90;1.80;;;8.30;97.40;8.20;100894.00;;;;4929017;28;93855;-69
2023/05/05 00:57:59;;;;;;;2.50;2.27;;;8.30;97.60;8.10;100899.00;;;;4925106;28;98948;-69
2023/05/05 01:00:26;;;;;;;3.40;1.97;;;8.30;98.10;8.10;100900.00;;;;4927069;28;93048;-69
2023/05/05 01:02:51;;;;;;;2.07;1.93;;;8.30;98.40;8.10;100897.00;;;;4928396;28;94070;-69
2023/05/05 01:05:19;;;;;;;6.13;2.47;;;8.20;98.80;8.10;100897.00;;;;4925797;28;95225;-69
2023/05/05 01:08:10;;;;;;;3.87;2.80;;;8.30;99.00;8.00;100898.00;;;;4930762;28;94187;-69
2023/05/05 01:10:52;;;;;;;3.80;2.63;;;8.20;99.30;8.00;100897.00;;;;4925729;28;93803;-69
2023/05/05 01:14:13;;;;;;;4.03;2.37;;;8.20;99.70;7.90;100899.00;;;;4923713;28;115110;-70
2023/05/05 01:16:58;;;;;;;3.43;2.07;;;8.10;99.90;7.90;100899.00;;;;4926983;28;93046;-69
2023/05/05 01:20:00;;;;;;;3.03;2.73;;;8.10;99.90;7.80;100906.00;;;;4924959;28;92900;-69
2023/05/05 01:23:00;;;;;;;4.03;2.93;;;8.00;99.90;7.80;100893.00;;;;4922447;28;93157;-69
2023/05/05 01:26:01;;;;;;;2.87;2.23;;;8.00;99.90;7.70;100897.00;;;;4920332;28;93687;-70
2023/05/05 01:29:18;;;;;;;3.53;2.23;;;7.90;99.90;7.70;100885.00;;;;4939799;28;92871;-68
2023/05/05 01:31:51;;;;;;;2.43;2.23;;;7.90;99.90;7.70;100893.00;;;;4873731;28;93016;-69
2023/05/05 01:34:27;;;;;;;2.60;2.30;;;7.90;99.90;7.60;100890.00;;;;4858170;28;94373;-70
2023/05/05 01:37:09;;;;;;;13.40;2.30;;;7.80;99.90;7.60;100893.00;;;;4905816;28;92875;-69
2023/05/05 01:39:36;;;;;;;2.70;2.33;;;7.80;99.90;7.60;100884.00;;;;4920688;28;92876;-69
2023/05/05 01:42:08;;;;;;;4.73;2.43;;;7.90;99.90;7.60;100885.00;;;;4929310;28;92635;-69
2023/05/05 01:44:35;;;;;;;2.37;2.17;;;7.70;99.90;7.50;100884.00;;;;4931273;28;93203;-69
2023/05/05 01:47:03;;;;;;;3.53;1.97;;;7.70;99.90;7.50;100884.00;;;;4922830;28;122485;-68
2023/05/05 01:49:30;;;;;;;3.93;2.30;;;7.60;99.90;7.40;100877.00;;;;4926711;28;94156;-68
2023/05/05 01:51:57;;;;;;;3.70;2.60;;;7.80;99.90;7.40;100864.00;;;;4925919;28;92614;-68
2023/05/05 01:54:24;;;;;;;2.50;2.30;;;7.60;99.90;7.30;100875.00;;;;4928193;28;93011;-69
2023/05/05 01:56:53;;;;;;;3.83;3.37;;;7.90;99.90;7.30;100880.00;;;;4927099;28;93837;-69
2023/05/05 01:59:20;;;;;;;2.57;2.03;;;7.40;99.90;7.30;100869.00;;;;4924531;28;94161;-69
2023/05/05 02:01:47;;;;;;;2.50;2.07;;;7.40;99.90;7.20;100877.00;;;;4930419;28;93002;-69
2023/05/05 02:04:16;;;;;;;2.53;2.17;;;7.40;99.90;7.30;100874.00;;;;4928973;28;93137;-69
2023/05/05 02:06:44;;;;;;;1.63;1.50;;;7.80;99.90;7.30;100873.00;;;;4925259;28;93842;-69
2023/05/05 02:09:12;;;;;;;5.03;1.93;;;7.40;99.90;7.30;100868.00;;;;4924755;28;94279;-69
2023/05/05 02:11:39;;;;;;;3.60;2.17;;;7.40;99.90;7.30;100859.00;;;;4924365;28;109843;-69
2023/05/05 02:14:06;;;;;;;2.80;2.50;;;7.80;99.90;7.30;100862.00;;;;4922772;28;92861;-69
2023/05/05 02:16:33;;;;;;;2.23;2.03;;;7.40;99.90;7.30;100871.00;;;;4927680;28;114039;-69
2023/05/05 02:19:04;;;;;;;1.70;1.60;;;7.80;99.90;7.30;100869.00;;;;4924173;28;93262;-69
2023/05/05 02:21:31;;;;;;;4.53;2.33;;;7.40;99.90;7.30;100869.00;;;;4922540;28;92922;-69
2023/05/05 02:23:57;;;;;;;3.30;2.63;;;7.50;99.90;7.30;100858.00;;;;4928858;28;93810;-69
2023/05/05 02:26:25;;;;;;;2.37;2.10;;;7.40;99.90;7.30;100866.00;;;;4929069;28;122381;-70
2023/05/05 02:29:15;;;;;;;3.57;1.93;;;7.40;99.90;7.20;100865.00;;;;4929166;28;93264;-69
2023/05/05 02:31:46;;;;;;;3.03;2.50;;;7.40;99.90;7.30;100876.00;;;;4930511;28;102570;-69
2023/05/05 02:34:15;;;;;;;2.83;2.53;;;7.40;99.90;7.30;100874.00;;;;4923590;28;92800;-70
2023/05/05 02:36:41;;;;;;;2.47;1.80;;;7.40;99.90;7.30;100869.00;;;;4928351;28;104086;-69
2023/05/05 02:39:19;;;;;;;3.87;2.20;;;7.70;99.90;7.40;100875.00;;;;4924126;28;122798;-70
2023/05/05 02:41:47;;;;;;;2.63;1.90;;;7.50;99.90;7.40;100871.00;;;;4925223;28;102897;-69
2023/05/05 02:44:15;;;;;;;8.00;2.60;;;7.70;99.90;7.40;100863.00;;;;4924664;28;108939;-69
2023/05/05 02:46:42;;;;;;;3.97;2.57;;;7.70;99.90;7.50;100869.00;;;;4925379;28;122774;-70
2023/05/05 02:49:07;;;;;;;4.03;2.90;;;7.60;99.90;7.50;100871.00;;;;4926129;28;122227;-69
2023/05/05 02:51:33;;;;;;;2.73;2.37;;;7.90;99.90;7.50;100870.00;;;;4926816;28;110525;-70
2023/05/05 02:53:59;;;;;;;4.57;2.13;;;7.80;99.90;7.50;100875.00;;;;4905512;28;100068;-69
2023/05/05 02:56:43;;;;;;;2.83;2.10;;;7.80;99.90;7.50;100878.00;;;;4928337;28;93256;-69
2023/05/05 02:59:30;;;;;;;2.67;2.47;;;7.70;99.90;7.60;100885.00;;;;4924546;28;92848;-69
2023/05/05 03:02:17;;;;;;;3.00;2.40;;;7.70;99.90;7.60;100881.00;;;;4923131;28;94248;-69
2023/05/05 03:05:12;;;;;;;2.57;2.37;;;7.70;99.90;7.60;100869.00;;;;4923922;28;93118;-69
2023/05/05 03:08:02;;;;;;;2.97;1.93;;;7.70;99.90;7.60;100877.00;;;;4919465;28;92801;-69
2023/05/05 03:10:34;;;;;;;3.67;2.60;;;7.80;99.90;7.60;100883.00;;;;4926077;28;93046;-69
2023/05/05 03:13:01;;;;;;;2.67;1.70;;;7.70;99.90;7.60;100877.00;;;;4926147;28;95045;-69
2023/05/05 03:15:55;;;;;;;3.67;2.23;;;7.70;99.90;7.50;100876.00;;;;4922842;28;93721;-70
2023/05/05 03:18:23;;;;;;;8.67;2.33;;;7.70;99.90;7.50;100875.00;;;;4921346;28;117810;-69
2023/05/05 03:20:49;;;;;;;3.23;2.20;;;7.70;99.90;7.50;100878.00;;;;4926891;28;95669;-69
2023/05/05 03:23:19;;;;;;;4.67;2.43;;;7.60;99.90;7.60;100881.00;;;;4922754;28;109544;-69
2023/05/05 03:25:47;;;;;;;3.47;2.73;;;7.60;99.90;7.60;100873.00;;;;4926592;28;92903;-69
2023/05/05 03:28:14;;;;;;;4.23;2.20;;;7.70;99.90;7.70;100881.00;;;;4924085;28;93238;-69
2023/05/05 03:30:40;;;;;;;2.03;1.90;;;7.80;99.90;7.70;100886.00;;;;4922927;28;114684;-69
2023/05/05 03:33:09;;;;;;;4.27;2.33;;;7.80;99.90;7.80;100882.00;;;;4925411;28;102730;-69
2023/05/05 03:35:34;;;;;;;2.53;2.33;;;7.90;99.90;7.90;100889.00;;;;4923817;28;98595;-69
2023/05/05 03:38:00;;;;;;;1.93;1.47;;;7.90;99.90;7.90;100885.00;;;;4925872;28;111586;-69
2023/05/05 03:40:25;;;;;;;3.53;1.90;;;8.00;99.90;7.90;100883.00;;;;4926443;28;94581;-69
2023/05/05 03:42:51;;;;;;;3.77;2.40;;;8.00;99.90;7.90;100885.00;;;;4923221;28;109160;-69
2023/05/05 03:45:17;;;;;;;3.57;2.60;;;8.30;99.90;7.90;100880.00;;;;4921936;28;109074;-69
2023/05/05 03:47:42;;;;;;;3.53;2.70;;;8.70;99.90;8.00;100875.00;;;;4923538;28;93103;-69
2023/05/05 03:50:08;;;;;;;2.93;2.17;;;8.10;99.90;8.00;100877.00;;;;4921017;28;121663;-69
2023/05/05 03:52:34;;;;;;;4.33;2.70;;;8.10;99.90;8.00;100873.00;;;;4924238;28;97692;-70
2023/05/05 03:55:00;;;;;;;2.47;2.00;;;8.10;99.90;8.00;100873.00;;;;4907104;28;93270;-69
2023/05/05 03:57:26;;;;;;;2.67;2.17;;;8.10;99.90;8.00;100872.00;;;;4926017;28;121346;-70
2023/05/05 03:59:52;;;;;;;3.03;2.70;;;8.10;99.90;8.00;100868.00;;;;4924080;28;122286;-70
2023/05/05 04:02:19;;;;;;;3.40;2.47;;;8.10;99.90;8.00;100867.00;;;;4924276;28;92992;-69
2023/05/05 04:04:44;;;;;;;3.33;2.80;;;8.40;99.90;8.00;100873.00;;;;4925084;28;95589;-69
2023/05/05 04:07:10;;;;;;;3.87;2.67;;;8.20;99.90;8.10;100864.00;;;;4926476;28;94015;-69
2023/05/05 04:09:43;;;;;;;2.77;2.23;;;8.20;99.90;8.10;100864.00;;;;4928250;28;98409;-69
2023/05/05 04:12:12;;;;;;;3.43;2.27;;;8.20;99.90;8.20;100871.00;;;;4929220;28;93215;-70
2023/05/05 04:14:38;;;;;;;4.30;2.40;;;8.20;99.90;8.20;100866.00;;;;4927530;28;102606;-69
2023/05/05 04:17:05;;;;;;;5.20;3.17;;;8.30;99.90;8.30;100866.00;;;;4922912;28;123338;-69
2023/05/05 04:19:33;;;;;;;3.37;2.23;;;8.40;99.90;8.40;100858.00;;;;4926574;28;93588;-69
2023/05/05 04:22:00;;;;;;;6.87;2.60;;;8.40;99.90;8.50;100861.00;;;;4926902;28;92251;-69
2023/05/05 04:24:26;;;;;;;2.60;2.17;;;8.50;99.90;8.50;100864.00;;;;4929598;28;109103;-69
2023/05/05 04:26:51;;;;;;;6.73;2.33;;;8.60;99.90;8.60;100867.00;;;;4926299;28;120805;-69
2023/05/05 04:29:17;;;;;;;2.80;2.60;;;8.60;99.90;8.70;100862.00;;;;4926172;28;122333;-70
2023/05/05 04:31:44;;;;;;;3.67;3.10;;;8.70;99.90;8.70;100867.00;;;;4926086;28;105565;-69
2023/05/05 04:34:09;;;;;;;3.07;2.73;;;8.70;99.90;8.80;100865.00;;;;4922749;28;93077;-69
2023/05/05 04:36:35;;;;;;;4.73;2.30;;;8.80;99.90;8.90;100876.00;;;;4928959;28;93782;-69
2023/05/05 04:39:01;;;;;;;3.03;2.27;;;8.90;99.90;9.10;100873.00;;;;4925035;28;93000;-69
2023/05/05 04:41:26;;;;;;;3.30;3.00;;;9.10;99.90;9.20;100869.00;;;;4923911;28;109666;-69
2023/05/05 04:43:53;;;;;;;4.60;2.63;;;9.20;99.90;9.40;100880.00;;;;4923642;28;108519;-70
2023/05/05 04:46:19;;;;;;;3.27;2.83;;;9.40;99.90;9.70;100885.00;;;;4926400;28;93928;-71
2023/05/05 04:48:45;;;;;;;6.23;2.70;;;9.60;99.90;9.90;100888.00;;;;4925623;28;94009;-73
2023/05/05 04:51:11;;;;;;;2.80;2.17;;;9.80;99.90;10.10;100895.00;;;;4921068;28;109250;-73
2023/05/05 04:53:38;;;;;;;2.53;2.33;;;10.10;99.90;10.30;100900.00;;;;4922902;28;94066;-71
2023/05/05 04:56:03;;;;;;;3.10;2.63;;;10.30;99.90;10.50;100900.00;;;;4924465;28;93158;-70
2023/05/05 04:58:30;;;;;;;3.37;2.13;;;10.40;99.90;10.60;100897.00;;;;4923234;28;109780;-69
2023/05/05 05:00:56;;;;;;;3.07;2.43;;;10.60;99.90;10.70;100900.00;;;;4926382;28;93031;-71
2023/05/05 05:03:21;;;;;;;2.00;1.80;;;10.70;99.90;10.80;100897.00;;;;4926920;28;92890;-72
2023/05/05 05:05:47;;;;;;;2.67;2.47;;;10.80;99.90;10.90;100904.00;;;;4927896;28;121837;-72
2023/05/05 05:08:15;;;;;;;3.10;2.10;;;10.80;99.90;10.90;100906.00;;;;4921585;28;122963;-70
2023/05/05 05:10:42;;;;;;;2.87;2.47;;;10.90;99.90;10.90;100906.00;;;;4909214;28;92783;-70
2023/05/05 05:13:08;;;;;;;3.53;2.07;;;11.00;99.90;11.00;100911.00;;;;4925999;28;92816;-70
2023/05/05 05:15:36;;;;;;;3.23;2.33;;;11.00;99.90;11.00;100901.00;;;;4921333;28;110001;-70
2023/05/05 05:18:03;;;;;;;3.27;2.47;;;11.00;99.90;11.10;100915.00;;;;4925631;28;93899;-70
2023/05/05 05:20:31;;;;;;;3.37;2.27;;;11.00;99.90;11.10;100909.00;;;;4926609;28;98588;-69
2023/05/05 05:23:00;;;;;;;3.07;2.70;;;11.10;99.90;11.10;100901.00;;;;4923075;28;93075;-69
2023/05/05 05:25:26;;;;;;;4.43;2.13;;;11.10;99.90;11.00;100908.00;;;;4920694;28;94110;-68
2023/05/05 05:28:01;;;;;;;3.07;2.53;;;11.00;99.90;11.00;100917.00;;;;4920931;28;116472;-68
2023/05/05 05:30:27;;;;;;;2.50;2.30;;;11.00;99.90;11.10;100912.00;;;;4921936;28;94765;-72
2023/05/05 05:32:53;;;;;;;3.17;2.07;;;11.00;99.90;11.10;100911.00;;;;4924417;28;93147;-68
2023/05/05 05:35:19;;;;;;;2.87;2.03;;;11.00;99.90;11.10;100911.00;;;;4923823;28;123300;-70
2023/05/05 05:37:46;;;;;;;2.23;1.93;;;11.10;99.90;11.20;100914.00;;;;4922370;28;118550;-72
2023/05/05 05:40:12;;;;;;;4.13;2.70;;;11.20;99.90;11.30;100914.00;;;;4920975;28;92947;-72
2023/05/05 05:42:39;;;;;;;2.67;2.17;;;11.20;99.90;11.40;100916.00;;;;4923607;28;100405;-73
2023/05/05 05:45:06;;;;;;;3.23;2.07;;;11.40;99.90;11.50;100911.00;;;;4924993;28;93721;-72
2023/05/05 05:47:41;;;;;;;3.27;2.73;;;11.40;99.90;11.70;100914.00;;;;4923753;28;93506;-69
2023/05/05 05:50:07;;;;;;;4.07;2.63;;;11.60;99.90;11.80;100916.00;;;;4925881;28;93001;-70
2023/05/05 05:52:34;;;;;;;4.40;2.47;;;11.70;99.90;11.90;100912.00;;;;4923606;28;99498;-70
2023/05/05 05:55:01;;;;;;;4.17;2.30;;;11.80;99.90;12.00;100917.00;;;;4923252;28;94609;-71
2023/05/05 05:57:26;;;;;;;4.57;2.03;;;11.90;99.90;12.10;100918.00;;;;4920223;28;116825;-71
2023/05/05 05:59:52;;;;;;;2.43;2.07;;;12.00;99.90;12.20;100912.00;;;;4926451;28;111437;-71
2023/05/05 06:02:19;;;;;;;2.93;2.17;;;12.10;99.90;12.30;100909.00;;;;4927961;28;92985;-71
2023/05/05 06:04:46;;;;;;;3.17;2.07;;;12.20;99.90;12.40;100911.00;;;;4921917;28;93125;-71
2023/05/05 06:07:12;;;;;;;1.90;1.80;;;12.60;99.90;12.60;100914.00;;;;4907771;28;94212;-70
2023/05/05 06:09:37;;;;;;;4.10;2.80;;;12.50;99.90;12.80;100908.00;;;;4920904;28;103107;-71
2023/05/05 06:12:03;;;;;;;5.53;2.40;;;12.60;99.90;12.90;100912.00;;;;4922733;28;99511;-70
2023/05/05 06:14:29;;;;;;;3.57;2.00;;;12.80;99.90;13.00;100912.00;;;;4922732;28;114975;-70
2023/05/05 06:16:55;;;;;;;3.87;2.43;;;12.90;99.90;13.10;100903.00;;;;4923621;28;93612;-71
2023/05/05 06:19:20;;;;;;;2.53;2.27;;;13.00;99.90;13.20;100912.00;;;;4922620;28;93127;-71
2023/05/05 06:21:46;;;;;;;2.13;1.93;;;13.10;99.90;13.40;100910.00;;;;4922202;28;92834;-71
2023/05/05 06:24:12;;;;;;;4.00;2.60;;;13.20;99.90;13.60;100915.00;;;;4920006;28;121812;-70
2023/05/05 06:26:38;;;;;;;2.43;2.23;;;13.40;99.30;13.70;100922.00;;;;4922453;28;122144;-73
2023/05/05 06:29:03;;;;;;;3.57;2.10;;;13.60;99.00;13.90;100908.00;;;;4923481;28;93984;-70
2023/05/05 06:31:29;;;;;;;2.93;2.57;;;13.80;98.10;14.20;100900.00;;;;4918832;28;93724;-71
2023/05/05 06:33:55;;;;;;;2.80;1.93;;;14.00;97.60;14.40;100905.00;;;;4920733;28;98325;-70
2023/05/05 06:36:20;;;;;;;14.40;2.35;;;14.20;97.10;14.70;100904.00;;;;4924559;28;123436;-72
2023/05/05 06:38:46;;;;;;;4.60;2.47;;;14.50;96.70;15.00;100910.00;;;;4920225;28;110507;-70
2023/05/05 06:41:12;;;;;;;2.67;1.77;;;14.80;96.00;15.40;100911.00;;;;4921832;28;108360;-73
2023/05/05 06:43:38;;;;;;;2.45;1.83;;;15.10;95.50;15.70;100915.00;;;;4922248;28;121480;-70
2023/05/05 06:46:04;;;;;;;5.20;1.73;;;15.40;94.80;16.10;100916.00;;;;4924973;28;93538;-70
2023/05/05 06:48:29;;;;;;;4.03;2.05;;;15.80;94.10;16.30;100914.00;;;;4919531;28;110635;-71
2023/05/05 06:50:56;;;;;;;3.67;1.98;;;16.10;93.30;16.60;100923.00;;;;4923653;28;108997;-71
2023/05/05 06:53:21;;;;;;;2.03;1.83;;;16.30;91.50;16.80;100914.00;;;;4920537;28;94295;-71
2023/05/05 06:55:47;;;;;;;5.78;2.35;;;16.60;91.50;17.10;100912.00;;;;4920155;28;122805;-70
2023/05/05 06:58:13;;;;;;;2.78;1.60;;;16.90;91.10;17.50;100911.00;;;;4918710;28;104291;-69
2023/05/05 07:00:39;;;;;;;2.80;2.10;;;17.20;90.60;17.80;100910.00;;;;4919325;28;109009;-71
2023/05/05 07:03:05;;;;;;;3.22;1.60;;;17.60;90.00;18.20;100928.00;;;;4917922;28;97487;-69
2023/05/05 07:05:31;;;;;;;3.38;2.03;;;17.90;86.50;18.40;100908.00;;;;4919488;28;121914;-70
2023/05/05 07:07:57;;;;;;;3.92;2.45;;;18.20;82.80;18.60;100915.00;;;;4918824;28;93008;-68
2023/05/05 07:10:24;;;;;;;2.92;2.17;;;18.40;81.10;18.80;100913.00;;;;4925669;28;93318;-72
2023/05/05 07:12:50;;;;;;;3.42;1.85;;;18.60;79.70;19.00;100914.00;;;;4923563;28;93663;-70
2023/05/05 07:15:16;;;;;;;2.30;1.60;;;18.80;76.90;19.10;100908.00;;;;4925065;28;93208;-69
2023/05/05 07:17:42;;;;;;;5.93;2.15;;;18.90;74.20;19.30;100910.00;;;;4920222;28;93037;-69
2023/05/05 07:20:09;;;;;;;2.15;1.73;;;19.10;73.40;19.50;100911.00;;;;4920185;28;93875;-70
2023/05/05 07:22:34;;;;;;;3.35;1.70;;;19.30;71.50;19.60;100910.00;;;;4905629;28;94561;-73
2023/05/05 07:25:04;;;;;;;2.83;1.88;;;19.40;71.10;19.90;100915.00;;;;4915773;28;121716;-70
2023/05/05 07:27:31;;;;;;;4.03;2.15;;;19.60;70.20;20.10;100919.00;;;;4920165;28;92837;-70
2023/05/05 07:29:57;;;;;;;2.28;2.03;;;19.90;68.80;20.20;100915.00;;;;4924632;28;93201;-72
2023/05/05 07:32:23;;;;;;;3.28;2.17;;;20.10;63.60;20.20;100921.00;;;;4921336;28;113313;-71
2023/05/05 07:34:48;;;;;;;3.92;2.35;;;20.10;63.40;20.30;100922.00;;;;4922343;28;120698;-70
2023/05/05 07:37:14;;;;;;;3.72;1.85;;;20.10;63.00;20.30;100929.00;;;;4921282;28;111369;-70
2023/05/05 07:39:40;;;;;;;4.47;2.15;;;20.20;63.20;20.50;100925.00;;;;4921551;28;94131;-70
2023/05/05 07:42:06;;;;;;;2.70;1.88;;;20.30;63.60;20.70;100938.00;;;;4935000;28;92957;-72
2023/05/05 07:44:32;;;;;;;3.10;2.03;;;20.50;62.50;20.90;100931.00;;;;4924021;28;93916;-73
2023/05/05 07:46:58;;;;;;;3.30;1.88;;;20.70;62.90;21.10;100942.00;;;;4926207;28;110283;-70
2023/05/05 07:49:24;;;;;;;3.15;1.95;;;20.90;60.70;21.30;100936.00;;;;4923677;28;93071;-71
2023/05/05 07:51:50;;;;;;;3.05;1.95;;;21.10;60.30;21.40;100933.00;;;;4926389;28;92981;-71
2023/05/05 07:54:18;;;;;;;4.65;2.17;;;21.20;60.20;21.70;100937.00;;;;4920987;28;93612;-72
2023/05/05 07:56:44;;;;;;;4.18;1.70;;;21.50;59.60;21.90;100940.00;;;;4899287;28;110281;-69
2023/05/05 07:59:10;;;;;;;2.03;1.42;;;21.70;58.90;22.00;100937.00;;;;4922535;28;93058;-69
2023/05/05 08:01:37;;;;;;;1.95;1.67;;;21.90;57.60;22.20;100940.00;;;;4919948;28;92354;-70
2023/05/05 08:04:03;;;;;;;1.92;1.27;;;22.00;56.40;22.30;100933.00;;;;4917667;28;113895;-71
2023/05/05 08:06:30;;;;;;;2.42;1.77;;;22.20;55.20;22.50;100940.00;;;;4919968;28;102678;-70
2023/05/05 08:08:58;;;;;;;3.30;1.90;;;22.30;54.20;22.60;100933.00;;;;4918907;28;93748;-69
2023/05/05 08:11:24;;;;;;;1.67;1.40;;;22.40;52.90;22.80;100934.00;;;;4919029;28;116925;-71
2023/05/05 08:13:50;;;;;;;1.30;1.20;;;22.50;51.20;22.80;100933.00;;;;4919383;28;101699;-72
2023/05/05 08:16:16;;;;;;;2.22;1.90;;;22.60;50.00;22.70;100936.00;;;;4919228;28;110669;-70
2023/05/05 08:18:43;;;;;;;2.53;1.58;;;22.60;50.10;22.80;100929.00;;;;4920492;28;93377;-70
2023/05/05 08:21:10;;;;;;;2.78;1.75;;;22.80;50.20;22.90;100928.00;;;;4920135;28;93255;-71
2023/05/05 08:23:37;;;;;;;1.95;1.27;;;22.80;50.20;23.10;100928.00;;;;4920783;28;104114;-70
2023/05/05 08:26:07;;;;;;;2.05;1.65;;;22.90;49.90;23.30;100931.00;;;;4919981;28;98549;-71
2023/05/05 08:28:35;;;;;;;1.90;1.17;;;23.00;49.60;23.40;100931.00;;;;4919220;28;92946;-71
2023/05/05 08:31:05;;;;;;;2.47;1.20;;;23.20;49.90;23.60;100923.00;;;;4916834;28;95279;-70
2023/05/05 08:33:31;;;;;;;2.00;1.63;;;23.40;47.40;23.50;100924.00;;;;4916767;28;94122;-72
2023/05/05 08:35:57;;;;;;;3.92;1.40;;;23.40;47.90;23.60;100913.00;;;;4923052;28;92808;-71
2023/05/05 08:38:23;;;;;;;2.30;1.48;;;23.40;48.40;23.90;100916.00;;;;4920710;28;108490;-71
2023/05/05 08:40:50;;;;;;;2.15;1.95;;;23.60;48.30;24.10;100919.00;;;;4918089;28;123903;-73
2023/05/05 08:43:19;;;;;;;2.28;1.35;;;23.80;47.70;24.40;100913.00;;;;4921211;28;94079;-72
2023/05/05 08:45:45;;;;;;;6.95;1.92;;;24.00;47.50;24.60;100913.00;;;;4920542;28;92756;-72
2023/05/05 08:48:12;;;;;;;2.00;1.45;;;24.30;44.40;24.60;100912.00;;;;4918245;28;97473;-72
2023/05/05 08:50:39;;;;;;;2.72;1.20;;;24.30;43.80;24.40;100909.00;;;;4918443;28;122333;-71
2023/05/05 08:53:10;;;;;;;3.15;1.85;;;24.20;43.20;24.20;100906.00;;;;4920547;28;93088;-70
2023/05/05 08:55:55;;;;;;;1.38;1.10;;;24.10;43.20;24.10;100905.00;;;;4924911;28;93408;-70
2023/05/05 08:58:23;;;;;;;1.52;1.42;;;23.90;43.80;24.00;100907.00;;;;4919826;28;102555;-71
2023/05/05 09:00:50;;;;;;;2.17;1.55;;;23.80;43.60;24.00;100903.00;;;;4926179;28;123904;-72
2023/05/05 09:03:26;;;;;;;1.20;1.10;;;23.80;44.00;24.00;100903.00;;;;4921050;28;93044;-70
2023/05/05 09:05:52;;;;;;;2.00;1.85;;;23.80;44.10;24.10;100902.00;;;;4924074;28;107817;-69
2023/05/05 09:08:18;;;;;;;4.15;2.08;;;23.80;44.00;24.10;100898.00;;;;4924256;28;107762;-69
2023/05/05 09:10:44;;;;;;;2.70;0.93;;;23.80;44.10;24.10;100904.00;;;;4924152;28;122740;-72
2023/05/05 09:13:10;;;;;;;6.78;1.63;;;23.80;44.50;24.20;100900.00;;;;4924416;28;124031;-70
2023/05/05 09:15:37;;;;;;;3.22;1.63;;;23.90;43.60;24.30;100901.00;;;;4922464;28;92344;-72
2023/05/05 09:18:07;;;;;;;1.48;1.38;;;24.00;43.50;24.50;100897.00;;;;4922776;28;96127;-73
2023/05/05 09:20:35;;;;;;;2.00;0.90;;;24.10;43.90;24.70;100885.00;;;;4921450;28;93496;-70
2023/05/05 09:23:16;;;;;;;1.30;1.20;;;24.30;43.20;25.00;100896.00;;;;4917969;28;94101;-70
2023/05/05 09:25:46;;;;;;;1.75;1.33;;;24.60;42.80;25.20;100902.00;;;;4921818;28;92935;-72
2023/05/05 09:28:14;;;;;;;2.70;1.80;;;24.80;41.10;25.20;100901.00;;;;4922794;28;92795;-70
2023/05/05 09:30:44;;;;;;;5.47;1.55;;;24.80;40.00;25.20;100901.00;;;;4920036;28;93928;-71
2023/05/05 09:33:10;;;;;;;5.90;1.38;;;24.80;40.30;25.30;100903.00;;;;4919104;28;116131;-72
2023/05/05 09:35:54;;;;;;;1.67;0.98;;;24.90;39.80;25.20;100899.00;;;;4924233;28;94284;-71
2023/05/05 09:38:22;;;;;;;2.30;1.15;;;24.90;40.30;25.20;100903.00;;;;4923815;28;93101;-71
2023/05/05 09:40:50;;;;;;;2.17;1.35;;;24.80;40.50;25.20;100906.00;;;;4924824;28;92800;-70
2023/05/05 09:43:18;;;;;;;1.30;1.20;;;24.90;40.30;25.10;100904.00;;;;4920482;28;106350;-70
2023/05/05 09:45:45;;;;;;;2.05;1.40;;;24.80;40.60;24.90;100910.00;;;;4919623;28;102552;-72
2023/05/05 09:48:31;;;;;;;2.65;1.73;;;24.70;39.70;24.80;100903.00;;;;4925784;28;94317;-70
2023/05/05 09:50:57;;;;;;;1.55;1.00;;;24.50;41.20;24.80;100910.00;;;;4926294;28;101009;-70
2023/05/05 09:53:25;;;;;;;4.40;1.92;;;24.50;41.10;25.00;100906.00;;;;4922947;28;93411;-69
2023/05/05 09:55:56;;;;;;;1.83;1.20;;;24.60;41.00;25.20;100905.00;;;;4923447;28;92809;-70
2023/05/05 09:58:27;;;;;;;2.40;1.55;;;24.80;41.20;25.50;100911.00;;;;4922100;28;93140;-69
2023/05/05 10:00:55;;;;;;;0.82;0.77;;;25.00;39.80;25.50;100903.00;;;;4923142;28;93660;-72
2023/05/05 10:03:21;;;;;;;9.02;1.67;;;25.00;39.90;25.70;100915.00;;;;4921184;28;93070;-71
2023/05/05 10:05:55;;;;;;;4.57;0.98;;;25.20;40.10;25.90;100907.00;;;;4921425;28;110736;-72
2023/05/05 10:08:25;;;;;;;1.63;1.33;;;25.40;40.30;26.00;100901.00;;;;4921954;28;101803;-70
2023/05/05 10:10:57;;;;;;;4.50;1.27;;;25.50;39.10;26.20;100907.00;;;;4923342;28;93226;-69
2023/05/05 10:13:24;;;;;;;3.17;1.33;;;25.60;38.40;26.10;100907.00;;;;4922383;28;94073;-71
2023/05/05 10:15:52;;;;;;;0.95;0.95;;;25.60;37.80;26.00;100898.00;;;;4921083;28;92922;-69
2023/05/05 10:18:22;;;;;;;1.55;1.42;;;25.60;38.10;26.00;100897.00;;;;4920867;28;93076;-70
2023/05/05 10:20:59;;;;;;;1.42;1.33;;;25.60;37.50;26.20;100897.00;;;;4920329;28;92907;-70
2023/05/05 10:23:38;;;;;;;1.30;1.13;;;25.60;38.30;26.50;100893.00;;;;4917305;28;92833;-70
2023/05/05 10:26:10;;;;;;;1.65;1.30;;;25.90;38.30;26.70;100890.00;;;;4923105;28;93410;-70
2023/05/05 10:28:49;;;;;;;1.88;1.55;;;26.10;36.70;26.70;100888.00;;;;4920046;28;94281;-69
2023/05/05 10:31:45;;;;;;;1.35;1.10;;;26.20;35.60;26.40;100880.00;;;;4922835;28;92530;-69
2023/05/05 10:34:37;;;;;;;1.35;1.00;;;26.00;35.40;26.40;100870.00;;;;4917912;28;93288;-69
2023/05/05 10:37:03;;;;;;;1.25;1.15;;;25.90;35.60;26.80;100873.00;;;;4922625;28;92687;-70
2023/05/05 10:39:30;;;;;;;1.27;0.95;;;26.10;35.40;26.80;100865.00;;;;4903390;28;104227;-70
2023/05/05 10:42:01;;;;;;;1.25;0.75;;;26.20;34.10;26.90;100874.00;;;;4919039;28;123355;-72
2023/05/05 10:44:29;;;;;;;1.13;1.02;;;26.30;34.20;26.90;100863.00;;;;4920675;28;92825;-70
2023/05/05 10:46:56;;;;;;;2.10;1.52;;;26.40;33.90;27.00;100863.00;;;;4921305;28;93081;-72
2023/05/05 10:49:40;;;;;;;1.25;1.05;;;26.40;34.50;27.20;100861.00;;;;4919709;28;93191;-72
2023/05/05 10:52:36;;;;;;;0.88;0.73;;;26.60;34.90;27.40;100864.00;;;;4919031;28;93360;-73
2023/05/05 10:55:39;;;;;;;1.70;1.10;;;26.80;34.20;27.70;100867.00;;;;4918304;28;114889;-70
2023/05/05 10:58:05;;;;;;;1.70;1.13;;;27.10;34.70;27.90;100866.00;;;;4923526;28;92448;-73
2023/05/05 11:00:40;;;;;;;1.27;1.13;;;27.30;34.00;28.10;100869.00;;;;4921085;28;108336;-70